Details From KTLH - Tallahassee Rgnl
To KBQK - BRUNSWICK GOLDEN ISLES
Flight Number -
Tags generated
Created
Modified
Stats Distance 158 nm / 292 km
Max Altitude 19,900 ft / 6,066 m
Waypoints 3
Social Downloads 1
Likes 0
Share VATSIM

Download

Looking for another format? Having issues loading an existing format? Contact us
Advertisement - Login to hide

Notes

Basic altitude profile: - Ascent Rate: 1500ft/min - Ascent Speed: 120kts - Cruise Altitude: 5000ft - Cruise Speed: 150kts - Descent Rate: 1000ft/min - Descent Speed: 100kts Options: - Use NATs: yes - Use PACOTS: yes - Use low airways: yes - Use high airways: no

Route

KTLH OTK KBQK

ID Type Via Altitude Latitude Longitude Leg Dist Tot Dist Heading (true) Name
O KTLH APT - 0 ft / 0 m 30.39734˚ -84.35137˚ - 0 nm - Tallahassee Rgnl
OTK VOR - 19,900 ft / 6,066 m 30.78044˚ -83.27972˚ 59 nm 59 nm 67° / 68° VALDOSTA VOR-DME
O KBQK APT - 0 ft / 0 m 31.25881˚ -81.46649˚ 97 nm 157 nm 72° / 73° BRUNSWICK GOLDEN ISLES

Altitude Profile

Advertisement - Login to hide

KTLH

Details ICAO KTLH (TLH)
Name Tallahassee Rgnl
Region United States
Timezone America/New_York (UTC-5.0)
Stats Elevation 81 ft / 25 m (AMSL)
Location 30.397340° -84.351373°
Runways 2
Magnetic Variation 4.707° W

METAR

KTLH 171653Z 17010KT 10SM SCT170 BKN250 19/13 A3023 RMK AO2 SLP236 T01940128

Decode

TAF

TAF KTLH 171120Z 1712/1812 VRB04KT P6SM BKN250 FM171500 13007KT P6SM BKN050 FM180300 00000KT 3SM BR OVC007 FM180600 00000KT 1/2SM FG OVC001

Decode

Departure Runways

ID Width Length Bearing (true) Bearing (mag) Surface Threshold Offset Overrun Length
09 150 ft / 46 m 7,986 ft / 2,434 m 89.47° 94.18° Asphalt 0 ft / 0 m 200 ft / 61 m
18 150 ft / 46 m 6,096 ft / 1,858 m 179.49° 184.20° Asphalt 0 ft / 0 m 151 ft / 46 m
27 150 ft / 46 m 7,986 ft / 2,434 m 269.48° 274.19° Asphalt 0 ft / 0 m 200 ft / 61 m
36 150 ft / 46 m 6,096 ft / 1,858 m 359.49° 4.20° Asphalt 0 ft / 0 m 161 ft / 49 m

KBQK

Details ICAO KBQK (BQK)
Name BRUNSWICK GOLDEN ISLES
Region United States
Timezone America/New_York (UTC-5.0)
Stats Elevation 26 ft / 8 m (AMSL)
Location 31.258808° -81.466494°
Runways 1
Magnetic Variation 6.724° W

METAR

KBQK 171735Z AUTO 13005KT 10SM CLR 17/06 A3026 RMK AO2

Decode

TAF

Not found

Destination Runways

ID Width Length Bearing (true) Bearing (mag) Surface Threshold Offset Overrun Length
07 150 ft / 46 m 7,994 ft / 2,437 m 65.24° 71.96° Asphalt 0 ft / 0 m 200 ft / 61 m
25 150 ft / 46 m 7,994 ft / 2,437 m 245.25° 251.97° Asphalt 0 ft / 0 m 900 ft / 274 m

Approach Navaids

Runway Type Ident Frequency Range Bearing (true) Bearing (mag) Slope Elevation
07 Localiser IBQK 108.50 MHz 18 nm / 33 km 64.93° 71.66° - 26 ft / 8 m (AMSL)
07 Glidescope IBQK 108.50 MHz 10 nm / 19 km 65.25° 71.97° 3.00° 22 ft / 7 m (AMSL)